KMZZ/MZZ METAR and TAF weather

Enter ICAO airport designator
Station Type Date Time Source
KMZZ METAR 2020/07/14 21:15 UTC NOAA

KMZZ 142115Z AUTO 15003KT 10SM SCT055 28/16 A3006 RMK AO2 T02760157


Station Type Date Time Source
KMZZ Decoded METAR 2020/07/14 21:15 UTC NOAA

Station name not available
Jul 14, 2020 - 05:15 PM EDT / 2020.07.14 2115 UTC
Wind: from the SSE (150 degrees) at 3 MPH (3 KT):0
Visibility: 10 mile(s):0
Sky conditions: partly cloudy
Temperature: 81.7 F (27.6 C)
Dew Point: 60.3 F (15.7 C)
Relative Humidity: 48%
Pressure (altimeter): 30.06 in. Hg (1017 hPa)
ob: KMZZ 142115Z AUTO 15003KT 10SM SCT055 28/16 A3006 RMK AO2 T02760157
cycle: 21

Station Type Date Time Source
KMZZ TAF UTC NOAA

Error!

Example: see airport list